aviador You're here:

KHLR Decoded Metar

FORT HOOD in TX, USA
Report Time2017-09-21 13:58:00
UTC Time2017-09-21 14:03:54
Flight Rules ifr IFR
Wind160° at 07 kt
W.Decomp.*RWY 16: 7.0 kt HW 0.6 kt LCW
W.Rank160° ranks 2
Current wind is below 160° avg. (8.4)
Visibility9999 m
Phenomena:N/A
Clouds:Overcast 007 Hf
Expected CloudBase > 400 ft AGL from Temp-Dew spread
Ceiling700 ft
Temp24°C (ISA +11)
Dew Point23°C (94% RH)
QNH1014 hPa
Density Alt2,526 ft
Elevation928 ft
Report Wrong Elevation
Raw Report
METAR KHLR 211358Z AUTO 16007KT 9SM OVC007 24/23 A2993 RMK AO2 OVC
V BKN SLP124 T02390227 $=

Extra information for KHLR:More info

Metar Taf Metar & Taf Last 4 Metars F.Rules Stats Wind Profile Meteogram Temp Stats Airport Information Weather charts Add Link Nearby VenuesMetar ALERT Operation Metar Decoded Social comments

AIRNAV info for KHLR